sensor_id;sensor_type;location;lat;lon;timestamp;P1;durP1;ratioP1;P2;durP2;ratioP2
20142;SDS011;10509;46.476;7.134;2022-11-12T00:02:16;3.80;;;0.90;;
20142;SDS011;10509;46.476;7.134;2022-11-12T00:04:42;1.33;;;1.00;;
20142;SDS011;10509;46.476;7.134;2022-11-12T00:07:08;2.77;;;1.20;;
20142;SDS011;10509;46.476;7.134;2022-11-12T00:09:34;1.97;;;1.77;;
20142;SDS011;10509;46.476;7.134;2022-11-12T00:12:01;3.20;;;1.50;;
20142;SDS011;10509;46.476;7.134;2022-11-12T00:14:27;1.23;;;1.13;;
20142;SDS011;10509;46.476;7.134;2022-11-12T00:16:53;1.70;;;1.10;;
20142;SDS011;10509;46.476;7.134;2022-11-12T00:19:19;1.50;;;0.80;;
20142;SDS011;10509;46.476;7.134;2022-11-12T00:21:45;1.37;;;0.90;;
20142;SDS011;10509;46.476;7.134;2022-11-12T00:24:11;2.73;;;1.00;;
20142;SDS011;10509;46.476;7.134;2022-11-12T00:26:37;1.20;;;1.10;;
20142;SDS011;10509;46.476;7.134;2022-11-12T00:29:03;1.47;;;1.10;;
20142;SDS011;10509;46.476;7.134;2022-11-12T00:31:29;1.60;;;0.80;;
20142;SDS011;10509;46.476;7.134;2022-11-12T00:33:55;1.30;;;0.80;;
20142;SDS011;10509;46.476;7.134;2022-11-12T00:36:21;1.33;;;0.70;;
20142;SDS011;10509;46.476;7.134;2022-11-12T00:38:47;1.10;;;0.90;;
20142;SDS011;10509;46.476;7.134;2022-11-12T00:41:13;1.37;;;0.90;;
20142;SDS011;10509;46.476;7.134;2022-11-12T00:43:39;1.30;;;1.20;;
20142;SDS011;10509;46.476;7.134;2022-11-12T00:46:05;1.77;;;1.00;;
20142;SDS011;10509;46.476;7.134;2022-11-12T00:48:31;2.20;;;1.03;;
20142;SDS011;10509;46.476;7.134;2022-11-12T00:51:01;1.37;;;0.87;;
20142;SDS011;10509;46.476;7.134;2022-11-12T00:53:28;3.07;;;0.80;;
20142;SDS011;10509;46.476;7.134;2022-11-12T00:55:58;0.90;;;0.70;;
20142;SDS011;10509;46.476;7.134;2022-11-12T00:58:26;1.87;;;0.70;;
20142;SDS011;10509;46.476;7.134;2022-11-12T01:00:52;1.63;;;1.13;;
20142;SDS011;10509;46.476;7.134;2022-11-12T01:03:18;1.23;;;0.90;;
20142;SDS011;10509;46.476;7.134;2022-11-12T01:05:44;1.67;;;1.17;;
20142;SDS011;10509;46.476;7.134;2022-11-12T01:08:10;1.10;;;0.90;;
20142;SDS011;10509;46.476;7.134;2022-11-12T01:10:36;1.30;;;1.00;;
20142;SDS011;10509;46.476;7.134;2022-11-12T01:13:02;1.87;;;1.00;;
20142;SDS011;10509;46.476;7.134;2022-11-12T01:15:28;1.30;;;0.70;;
20142;SDS011;10509;46.476;7.134;2022-11-12T01:17:54;1.57;;;0.70;;
20142;SDS011;10509;46.476;7.134;2022-11-12T01:20:20;0.90;;;0.70;;
20142;SDS011;10509;46.476;7.134;2022-11-12T01:22:46;1.07;;;0.70;;
20142;SDS011;10509;46.476;7.134;2022-11-12T01:25:12;1.80;;;0.80;;
20142;SDS011;10509;46.476;7.134;2022-11-12T01:27:38;1.27;;;0.87;;
20142;SDS011;10509;46.476;7.134;2022-11-12T01:30:04;0.83;;;0.70;;
20142;SDS011;10509;46.476;7.134;2022-11-12T01:32:34;1.00;;;0.80;;
20142;SDS011;10509;46.476;7.134;2022-11-12T01:35:01;1.03;;;0.93;;
20142;SDS011;10509;46.476;7.134;2022-11-12T01:37:27;1.20;;;0.60;;
20142;SDS011;10509;46.476;7.134;2022-11-12T01:39:53;1.20;;;0.60;;
20142;SDS011;10509;46.476;7.134;2022-11-12T01:42:19;1.17;;;0.73;;
20142;SDS011;10509;46.476;7.134;2022-11-12T01:44:45;1.03;;;0.60;;
20142;SDS011;10509;46.476;7.134;2022-11-12T01:47:19;1.43;;;0.53;;
20142;SDS011;10509;46.476;7.134;2022-11-12T01:49:48;2.30;;;0.70;;
20142;SDS011;10509;46.476;7.134;2022-11-12T01:52:19;1.17;;;0.60;;
20142;SDS011;10509;46.476;7.134;2022-11-12T01:54:48;0.80;;;0.60;;
20142;SDS011;10509;46.476;7.134;2022-11-12T01:57:16;0.90;;;0.60;;
20142;SDS011;10509;46.476;7.134;2022-11-12T01:59:44;0.87;;;0.70;;
20142;SDS011;10509;46.476;7.134;2022-11-12T02:02:10;0.90;;;0.70;;
20142;SDS011;10509;46.476;7.134;2022-11-12T02:04:37;1.63;;;0.53;;
20142;SDS011;10509;46.476;7.134;2022-11-12T02:07:05;0.87;;;0.60;;
20142;SDS011;10509;46.476;7.134;2022-11-12T02:09:31;0.60;;;0.60;;
20142;SDS011;10509;46.476;7.134;2022-11-12T02:11:57;1.63;;;0.63;;
20142;SDS011;10509;46.476;7.134;2022-11-12T02:14:24;2.90;;;0.80;;
20142;SDS011;10509;46.476;7.134;2022-11-12T02:16:50;1.00;;;0.60;;
20142;SDS011;10509;46.476;7.134;2022-11-12T02:19:17;1.00;;;0.60;;
20142;SDS011;10509;46.476;7.134;2022-11-12T02:21:43;0.57;;;0.57;;
20142;SDS011;10509;46.476;7.134;2022-11-12T02:26:45;0.50;;;0.50;;
20142;SDS011;10509;46.476;7.134;2022-11-12T02:29:12;0.50;;;0.50;;
20142;SDS011;10509;46.476;7.134;2022-11-12T02:31:38;0.60;;;0.60;;
20142;SDS011;10509;46.476;7.134;2022-11-12T02:34:04;1.77;;;0.60;;
20142;SDS011;10509;46.476;7.134;2022-11-12T02:36:30;0.63;;;0.50;;
20142;SDS011;10509;46.476;7.134;2022-11-12T02:38:56;4.10;;;0.70;;
20142;SDS011;10509;46.476;7.134;2022-11-12T02:41:22;2.47;;;0.60;;
20142;SDS011;10509;46.476;7.134;2022-11-12T02:43:48;1.27;;;0.70;;
20142;SDS011;10509;46.476;7.134;2022-11-12T02:46:14;1.27;;;0.50;;
20142;SDS011;10509;46.476;7.134;2022-11-12T02:48:40;0.70;;;0.50;;
20142;SDS011;10509;46.476;7.134;2022-11-12T02:51:06;0.73;;;0.50;;
20142;SDS011;10509;46.476;7.134;2022-11-12T02:53:33;1.57;;;0.70;;
20142;SDS011;10509;46.476;7.134;2022-11-12T02:55:59;2.27;;;0.57;;
20142;SDS011;10509;46.476;7.134;2022-11-12T02:58:25;0.60;;;0.60;;
20142;SDS011;10509;46.476;7.134;2022-11-12T03:00:51;0.73;;;0.40;;
20142;SDS011;10509;46.476;7.134;2022-11-12T03:03:18;2.60;;;0.60;;
20142;SDS011;10509;46.476;7.134;2022-11-12T03:05:44;1.60;;;0.63;;
20142;SDS011;10509;46.476;7.134;2022-11-12T03:08:10;0.83;;;0.50;;
20142;SDS011;10509;46.476;7.134;2022-11-12T03:10:37;1.43;;;0.60;;
20142;SDS011;10509;46.476;7.134;2022-11-12T03:13:04;1.10;;;0.60;;
20142;SDS011;10509;46.476;7.134;2022-11-12T03:15:30;0.80;;;0.60;;
20142;SDS011;10509;46.476;7.134;2022-11-12T03:17:57;2.10;;;0.60;;
20142;SDS011;10509;46.476;7.134;2022-11-12T03:20:23;0.77;;;0.40;;
20142;SDS011;10509;46.476;7.134;2022-11-12T03:22:59;0.87;;;0.50;;
20142;SDS011;10509;46.476;7.134;2022-11-12T03:25:26;0.77;;;0.60;;
20142;SDS011;10509;46.476;7.134;2022-11-12T03:28:03;1.90;;;0.53;;
20142;SDS011;10509;46.476;7.134;2022-11-12T03:30:30;0.60;;;0.53;;
20142;SDS011;10509;46.476;7.134;2022-11-12T03:32:57;1.00;;;0.50;;
20142;SDS011;10509;46.476;7.134;2022-11-12T03:35:23;1.03;;;0.60;;
20142;SDS011;10509;46.476;7.134;2022-11-12T03:37:50;0.83;;;0.60;;
20142;SDS011;10509;46.476;7.134;2022-11-12T03:40:16;1.20;;;0.90;;
20142;SDS011;10509;46.476;7.134;2022-11-12T03:42:43;0.90;;;0.80;;
20142;SDS011;10509;46.476;7.134;2022-11-12T03:45:09;2.27;;;0.93;;
20142;SDS011;10509;46.476;7.134;2022-11-12T03:47:35;1.83;;;0.87;;
20142;SDS011;10509;46.476;7.134;2022-11-12T03:50:01;2.40;;;0.63;;
20142;SDS011;10509;46.476;7.134;2022-11-12T03:52:27;0.90;;;0.60;;
20142;SDS011;10509;46.476;7.134;2022-11-12T03:54:53;0.67;;;0.63;;
20142;SDS011;10509;46.476;7.134;2022-11-12T03:57:19;1.03;;;0.50;;
20142;SDS011;10509;46.476;7.134;2022-11-12T03:59:45;1.73;;;0.80;;
20142;SDS011;10509;46.476;7.134;2022-11-12T04:02:11;0.80;;;0.60;;
20142;SDS011;10509;46.476;7.134;2022-11-12T04:04:38;1.87;;;0.63;;
20142;SDS011;10509;46.476;7.134;2022-11-12T04:07:23;1.03;;;0.60;;
20142;SDS011;10509;46.476;7.134;2022-11-12T04:10:07;0.90;;;0.50;;
20142;SDS011;10509;46.476;7.134;2022-11-12T04:12:33;2.47;;;2.23;;
20142;SDS011;10509;46.476;7.134;2022-11-12T04:15:18;2.50;;;0.50;;
20142;SDS011;10509;46.476;7.134;2022-11-12T04:17:44;0.70;;;0.50;;
20142;SDS011;10509;46.476;7.134;2022-11-12T04:20:29;0.57;;;0.43;;
20142;SDS011;10509;46.476;7.134;2022-11-12T04:23:13;1.10;;;0.50;;
20142;SDS011;10509;46.476;7.134;2022-11-12T04:25:40;1.47;;;0.50;;
20142;SDS011;10509;46.476;7.134;2022-11-12T04:28:24;2.10;;;0.60;;
20142;SDS011;10509;46.476;7.134;2022-11-12T04:30:50;0.70;;;0.60;;
20142;SDS011;10509;46.476;7.134;2022-11-12T04:33:16;0.50;;;0.50;;
20142;SDS011;10509;46.476;7.134;2022-11-12T04:35:42;1.30;;;0.60;;
20142;SDS011;10509;46.476;7.134;2022-11-12T04:38:08;1.43;;;0.70;;
20142;SDS011;10509;46.476;7.134;2022-11-12T04:40:34;1.63;;;0.70;;
20142;SDS011;10509;46.476;7.134;2022-11-12T04:43:19;0.60;;;0.53;;
20142;SDS011;10509;46.476;7.134;2022-11-12T04:46:03;0.47;;;0.40;;
20142;SDS011;10509;46.476;7.134;2022-11-12T04:48:30;1.00;;;0.50;;
20142;SDS011;10509;46.476;7.134;2022-11-12T04:51:02;0.30;;;0.30;;
20142;SDS011;10509;46.476;7.134;2022-11-12T04:53:52;2.33;;;0.50;;
20142;SDS011;10509;46.476;7.134;2022-11-12T04:56:18;0.67;;;0.40;;
20142;SDS011;10509;46.476;7.134;2022-11-12T04:58:44;0.70;;;0.47;;
20142;SDS011;10509;46.476;7.134;2022-11-12T05:01:10;1.13;;;0.60;;
20142;SDS011;10509;46.476;7.134;2022-11-12T05:03:36;0.93;;;0.60;;
20142;SDS011;10509;46.476;7.134;2022-11-12T05:06:03;1.30;;;0.83;;
20142;SDS011;10509;46.476;7.134;2022-11-12T05:08:49;0.93;;;0.50;;
20142;SDS011;10509;46.476;7.134;2022-11-12T05:11:15;1.93;;;0.57;;
20142;SDS011;10509;46.476;7.134;2022-11-12T05:13:41;1.67;;;0.60;;
20142;SDS011;10509;46.476;7.134;2022-11-12T05:16:07;1.43;;;0.50;;
20142;SDS011;10509;46.476;7.134;2022-11-12T05:18:33;0.60;;;0.50;;
20142;SDS011;10509;46.476;7.134;2022-11-12T05:20:59;0.80;;;0.40;;
20142;SDS011;10509;46.476;7.134;2022-11-12T05:23:45;0.60;;;0.37;;
20142;SDS011;10509;46.476;7.134;2022-11-12T05:26:11;0.57;;;0.50;;
20142;SDS011;10509;46.476;7.134;2022-11-12T05:28:37;0.97;;;0.60;;
20142;SDS011;10509;46.476;7.134;2022-11-12T05:31:03;1.00;;;0.60;;
20142;SDS011;10509;46.476;7.134;2022-11-12T05:33:29;1.27;;;0.70;;
20142;SDS011;10509;46.476;7.134;2022-11-12T05:35:55;0.93;;;0.60;;
20142;SDS011;10509;46.476;7.134;2022-11-12T05:38:21;0.33;;;0.30;;
20142;SDS011;10509;46.476;7.134;2022-11-12T05:40:47;1.03;;;0.90;;
20142;SDS011;10509;46.476;7.134;2022-11-12T05:43:13;3.57;;;3.27;;
20142;SDS011;10509;46.476;7.134;2022-11-12T05:45:43;6.57;;;4.73;;
20142;SDS011;10509;46.476;7.134;2022-11-12T05:48:09;3.27;;;2.97;;
20142;SDS011;10509;46.476;7.134;2022-11-12T05:50:35;1.87;;;1.50;;
20142;SDS011;10509;46.476;7.134;2022-11-12T05:53:01;0.70;;;0.70;;
20142;SDS011;10509;46.476;7.134;2022-11-12T05:55:27;2.03;;;0.70;;
20142;SDS011;10509;46.476;7.134;2022-11-12T05:57:53;2.30;;;0.50;;
20142;SDS011;10509;46.476;7.134;2022-11-12T06:00:19;1.60;;;1.50;;
20142;SDS011;10509;46.476;7.134;2022-11-12T06:02:45;3.27;;;3.07;;
20142;SDS011;10509;46.476;7.134;2022-11-12T06:05:11;12.57;;;1.23;;
20142;SDS011;10509;46.476;7.134;2022-11-12T06:07:37;7.87;;;1.00;;
20142;SDS011;10509;46.476;7.134;2022-11-12T06:10:03;5.73;;;1.07;;
20142;SDS011;10509;46.476;7.134;2022-11-12T06:12:29;0.97;;;0.60;;
20142;SDS011;10509;46.476;7.134;2022-11-12T06:14:55;1.63;;;1.07;;
20142;SDS011;10509;46.476;7.134;2022-11-12T06:17:21;7.87;;;7.37;;
20142;SDS011;10509;46.476;7.134;2022-11-12T06:19:47;4.43;;;4.10;;
20142;SDS011;10509;46.476;7.134;2022-11-12T06:22:13;4.07;;;1.53;;
20142;SDS011;10509;46.476;7.134;2022-11-12T06:24:39;3.20;;;2.37;;
20142;SDS011;10509;46.476;7.134;2022-11-12T06:27:05;1.67;;;1.20;;
20142;SDS011;10509;46.476;7.134;2022-11-12T06:29:31;6.50;;;3.60;;
20142;SDS011;10509;46.476;7.134;2022-11-12T06:31:57;3.40;;;1.67;;
20142;SDS011;10509;46.476;7.134;2022-11-12T06:34:23;0.70;;;0.70;;
20142;SDS011;10509;46.476;7.134;2022-11-12T06:36:49;1.20;;;0.90;;
20142;SDS011;10509;46.476;7.134;2022-11-12T06:39:15;2.53;;;1.80;;
20142;SDS011;10509;46.476;7.134;2022-11-12T06:41:41;10.87;;;9.97;;
20142;SDS011;10509;46.476;7.134;2022-11-12T06:44:07;5.60;;;4.27;;
20142;SDS011;10509;46.476;7.134;2022-11-12T06:46:33;2.90;;;2.00;;
20142;SDS011;10509;46.476;7.134;2022-11-12T06:48:59;14.93;;;13.50;;
20142;SDS011;10509;46.476;7.134;2022-11-12T06:51:25;10.70;;;9.20;;
20142;SDS011;10509;46.476;7.134;2022-11-12T06:53:51;3.30;;;2.60;;
20142;SDS011;10509;46.476;7.134;2022-11-12T06:56:19;4.27;;;3.17;;
20142;SDS011;10509;46.476;7.134;2022-11-12T06:58:45;2.40;;;2.20;;
20142;SDS011;10509;46.476;7.134;2022-11-12T07:01:12;2.63;;;1.83;;
20142;SDS011;10509;46.476;7.134;2022-11-12T07:03:39;5.50;;;5.10;;
20142;SDS011;10509;46.476;7.134;2022-11-12T07:06:06;5.90;;;4.87;;
20142;SDS011;10509;46.476;7.134;2022-11-12T07:08:33;13.50;;;11.47;;
20142;SDS011;10509;46.476;7.134;2022-11-12T07:10:59;14.83;;;13.23;;
20142;SDS011;10509;46.476;7.134;2022-11-12T07:13:25;7.70;;;7.10;;
20142;SDS011;10509;46.476;7.134;2022-11-12T07:15:51;14.53;;;11.70;;
20142;SDS011;10509;46.476;7.134;2022-11-12T07:18:21;2.47;;;2.23;;
20142;SDS011;10509;46.476;7.134;2022-11-12T07:20:47;3.87;;;2.30;;
20142;SDS011;10509;46.476;7.134;2022-11-12T07:23:13;1.63;;;0.93;;
20142;SDS011;10509;46.476;7.134;2022-11-12T07:25:38;5.73;;;1.20;;
20142;SDS011;10509;46.476;7.134;2022-11-12T07:28:04;1.27;;;0.70;;
20142;SDS011;10509;46.476;7.134;2022-11-12T07:30:30;3.53;;;0.90;;
20142;SDS011;10509;46.476;7.134;2022-11-12T07:32:57;11.03;;;7.40;;
20142;SDS011;10509;46.476;7.134;2022-11-12T07:35:23;9.33;;;7.07;;
20142;SDS011;10509;46.476;7.134;2022-11-12T07:37:49;4.27;;;3.17;;
20142;SDS011;10509;46.476;7.134;2022-11-12T07:40:15;11.93;;;10.73;;
20142;SDS011;10509;46.476;7.134;2022-11-12T07:42:41;7.37;;;6.77;;
20142;SDS011;10509;46.476;7.134;2022-11-12T07:45:07;14.23;;;12.73;;
20142;SDS011;10509;46.476;7.134;2022-11-12T07:47:33;4.60;;;4.20;;
20142;SDS011;10509;46.476;7.134;2022-11-12T07:49:59;3.90;;;3.50;;
20142;SDS011;10509;46.476;7.134;2022-11-12T07:52:25;16.83;;;8.53;;
20142;SDS011;10509;46.476;7.134;2022-11-12T07:54:51;3.97;;;2.87;;
20142;SDS011;10509;46.476;7.134;2022-11-12T07:57:17;3.40;;;3.10;;
20142;SDS011;10509;46.476;7.134;2022-11-12T07:59:43;5.33;;;2.63;;
20142;SDS011;10509;46.476;7.134;2022-11-12T08:02:09;4.07;;;3.40;;
20142;SDS011;10509;46.476;7.134;2022-11-12T08:04:35;4.33;;;2.50;;
20142;SDS011;10509;46.476;7.134;2022-11-12T08:07:01;5.07;;;2.00;;
20142;SDS011;10509;46.476;7.134;2022-11-12T08:09:27;1.60;;;1.13;;
20142;SDS011;10509;46.476;7.134;2022-11-12T08:11:53;1.30;;;1.20;;
20142;SDS011;10509;46.476;7.134;2022-11-12T08:14:19;2.80;;;1.50;;
20142;SDS011;10509;46.476;7.134;2022-11-12T08:16:45;2.50;;;2.30;;
20142;SDS011;10509;46.476;7.134;2022-11-12T08:19:11;7.23;;;1.73;;
20142;SDS011;10509;46.476;7.134;2022-11-12T08:21:37;3.53;;;1.10;;
20142;SDS011;10509;46.476;7.134;2022-11-12T08:24:03;3.53;;;1.00;;
20142;SDS011;10509;46.476;7.134;2022-11-12T08:26:29;3.03;;;1.20;;
20142;SDS011;10509;46.476;7.134;2022-11-12T08:28:55;3.07;;;1.27;;
20142;SDS011;10509;46.476;7.134;2022-11-12T08:31:21;2.97;;;1.27;;
20142;SDS011;10509;46.476;7.134;2022-11-12T08:33:47;1.67;;;0.97;;
20142;SDS011;10509;46.476;7.134;2022-11-12T08:36:14;2.93;;;1.00;;
20142;SDS011;10509;46.476;7.134;2022-11-12T08:38:41;1.40;;;1.30;;
20142;SDS011;10509;46.476;7.134;2022-11-12T08:41:08;2.17;;;1.43;;
20142;SDS011;10509;46.476;7.134;2022-11-12T08:43:35;4.60;;;1.30;;
20142;SDS011;10509;46.476;7.134;2022-11-12T08:46:01;7.10;;;1.60;;
20142;SDS011;10509;46.476;7.134;2022-11-12T08:48:28;1.63;;;1.20;;
20142;SDS011;10509;46.476;7.134;2022-11-12T08:50:54;4.00;;;1.40;;
20142;SDS011;10509;46.476;7.134;2022-11-12T08:53:21;4.33;;;2.10;;
20142;SDS011;10509;46.476;7.134;2022-11-12T08:55:47;2.97;;;1.67;;
20142;SDS011;10509;46.476;7.134;2022-11-12T08:58:13;9.03;;;1.47;;
20142;SDS011;10509;46.476;7.134;2022-11-12T09:00:40;3.27;;;1.20;;
20142;SDS011;10509;46.476;7.134;2022-11-12T09:03:12;2.97;;;1.10;;
20142;SDS011;10509;46.476;7.134;2022-11-12T09:05:38;1.40;;;0.80;;
20142;SDS011;10509;46.476;7.134;2022-11-12T09:08:07;2.47;;;0.90;;
20142;SDS011;10509;46.476;7.134;2022-11-12T09:10:33;1.67;;;0.80;;
20142;SDS011;10509;46.476;7.134;2022-11-12T09:13:00;1.63;;;0.87;;
20142;SDS011;10509;46.476;7.134;2022-11-12T09:15:26;1.20;;;0.80;;
20142;SDS011;10509;46.476;7.134;2022-11-12T09:17:54;4.97;;;1.37;;
20142;SDS011;10509;46.476;7.134;2022-11-12T09:20:20;3.33;;;0.90;;
20142;SDS011;10509;46.476;7.134;2022-11-12T09:22:46;1.93;;;1.10;;
20142;SDS011;10509;46.476;7.134;2022-11-12T09:25:12;5.73;;;1.00;;
20142;SDS011;10509;46.476;7.134;2022-11-12T09:27:38;1.60;;;1.00;;
20142;SDS011;10509;46.476;7.134;2022-11-12T09:30:04;2.30;;;0.80;;
20142;SDS011;10509;46.476;7.134;2022-11-12T09:32:31;2.00;;;0.80;;
20142;SDS011;10509;46.476;7.134;2022-11-12T09:34:57;5.17;;;1.80;;
20142;SDS011;10509;46.476;7.134;2022-11-12T09:37:23;2.97;;;1.10;;
20142;SDS011;10509;46.476;7.134;2022-11-12T09:39:49;5.83;;;1.40;;
20142;SDS011;10509;46.476;7.134;2022-11-12T09:42:15;3.33;;;1.77;;
20142;SDS011;10509;46.476;7.134;2022-11-12T09:44:43;3.87;;;1.30;;
20142;SDS011;10509;46.476;7.134;2022-11-12T09:47:13;2.57;;;0.80;;
20142;SDS011;10509;46.476;7.134;2022-11-12T09:49:43;1.77;;;0.70;;
20142;SDS011;10509;46.476;7.134;2022-11-12T09:52:18;1.60;;;0.70;;
20142;SDS011;10509;46.476;7.134;2022-11-12T09:54:45;1.70;;;0.90;;
20142;SDS011;10509;46.476;7.134;2022-11-12T09:57:15;2.20;;;0.70;;
20142;SDS011;10509;46.476;7.134;2022-11-12T09:59:41;1.50;;;0.60;;
20142;SDS011;10509;46.476;7.134;2022-11-12T10:10:17;5.93;;;1.70;;
20142;SDS011;10509;46.476;7.134;2022-11-12T10:18:18;4.00;;;1.10;;
20142;SDS011;10509;46.476;7.134;2022-11-12T10:23:39;2.70;;;0.70;;
20142;SDS011;10509;46.476;7.134;2022-11-12T10:26:13;2.77;;;0.73;;
20142;SDS011;10509;46.476;7.134;2022-11-12T10:31:12;14.23;;;1.30;;
20142;SDS011;10509;46.476;7.134;2022-11-12T10:33:38;0.90;;;0.60;;
20142;SDS011;10509;46.476;7.134;2022-11-12T10:38:50;3.67;;;0.90;;
20142;SDS011;10509;46.476;7.134;2022-11-12T10:41:17;2.87;;;1.50;;
20142;SDS011;10509;46.476;7.134;2022-11-12T10:43:54;3.73;;;1.43;;
20142;SDS011;10509;46.476;7.134;2022-11-12T10:46:21;2.87;;;0.70;;
20142;SDS011;10509;46.476;7.134;2022-11-12T10:48:52;2.53;;;0.90;;
20142;SDS011;10509;46.476;7.134;2022-11-12T10:51:19;4.43;;;1.47;;
20142;SDS011;10509;46.476;7.134;2022-11-12T10:53:48;1.03;;;0.60;;
20142;SDS011;10509;46.476;7.134;2022-11-12T10:56:22;1.37;;;0.70;;
20142;SDS011;10509;46.476;7.134;2022-11-12T10:59:13;1.37;;;0.70;;
20142;SDS011;10509;46.476;7.134;2022-11-12T11:01:35;4.80;;;0.80;;
20142;SDS011;10509;46.476;7.134;2022-11-12T11:04:02;2.50;;;0.80;;
20142;SDS011;10509;46.476;7.134;2022-11-12T11:06:28;0.80;;;0.50;;
20142;SDS011;10509;46.476;7.134;2022-11-12T11:09:12;1.90;;;0.60;;
20142;SDS011;10509;46.476;7.134;2022-11-12T11:11:49;2.20;;;0.50;;
20142;SDS011;10509;46.476;7.134;2022-11-12T11:16:51;2.50;;;0.60;;
20142;SDS011;10509;46.476;7.134;2022-11-12T11:19:17;2.13;;;0.70;;
20142;SDS011;10509;46.476;7.134;2022-11-12T11:24:19;1.67;;;0.80;;
20142;SDS011;10509;46.476;7.134;2022-11-12T11:39:23;0.80;;;0.30;;
20142;SDS011;10509;46.476;7.134;2022-11-12T11:42:09;0.60;;;0.30;;
20142;SDS011;10509;46.476;7.134;2022-11-12T11:47:20;1.43;;;0.50;;
20142;SDS011;10509;46.476;7.134;2022-11-12T11:57:10;1.10;;;0.57;;
20142;SDS011;10509;46.476;7.134;2022-11-12T12:04:48;0.80;;;0.60;;
20142;SDS011;10509;46.476;7.134;2022-11-12T12:07:23;1.77;;;0.80;;
20142;SDS011;10509;46.476;7.134;2022-11-12T12:12:42;0.57;;;0.43;;
20142;SDS011;10509;46.476;7.134;2022-11-12T12:17:57;1.23;;;0.80;;
20142;SDS011;10509;46.476;7.134;2022-11-12T12:20:31;1.27;;;0.60;;
20142;SDS011;10509;46.476;7.134;2022-11-12T12:23:03;7.33;;;1.17;;
20142;SDS011;10509;46.476;7.134;2022-11-12T12:25:34;5.40;;;1.30;;
20142;SDS011;10509;46.476;7.134;2022-11-12T12:28:23;3.03;;;0.90;;
20142;SDS011;10509;46.476;7.134;2022-11-12T12:30:52;3.50;;;1.20;;
20142;SDS011;10509;46.476;7.134;2022-11-12T12:33:29;2.63;;;1.10;;
20142;SDS011;10509;46.476;7.134;2022-11-12T12:35:58;2.13;;;1.00;;
20142;SDS011;10509;46.476;7.134;2022-11-12T12:38:28;1.40;;;1.00;;
20142;SDS011;10509;46.476;7.134;2022-11-12T12:43:28;3.03;;;0.90;;
20142;SDS011;10509;46.476;7.134;2022-11-12T12:45:55;4.80;;;0.70;;
20142;SDS011;10509;46.476;7.134;2022-11-12T12:48:24;0.97;;;0.50;;
20142;SDS011;10509;46.476;7.134;2022-11-12T12:50:51;0.40;;;0.40;;
20142;SDS011;10509;46.476;7.134;2022-11-12T12:56:04;1.30;;;0.50;;
20142;SDS011;10509;46.476;7.134;2022-11-12T12:58:41;3.60;;;0.50;;
20142;SDS011;10509;46.476;7.134;2022-11-12T13:08:55;1.67;;;0.60;;
20142;SDS011;10509;46.476;7.134;2022-11-12T13:17:03;1.67;;;0.40;;
20142;SDS011;10509;46.476;7.134;2022-11-12T13:30:09;0.80;;;0.50;;
20142;SDS011;10509;46.476;7.134;2022-11-12T13:40:16;1.60;;;0.70;;
20142;SDS011;10509;46.476;7.134;2022-11-12T13:42:45;1.70;;;0.60;;
20142;SDS011;10509;46.476;7.134;2022-11-12T13:45:18;2.73;;;0.67;;
20142;SDS011;10509;46.476;7.134;2022-11-12T13:47:45;2.70;;;0.60;;
20142;SDS011;10509;46.476;7.134;2022-11-12T13:50:18;2.00;;;0.40;;
20142;SDS011;10509;46.476;7.134;2022-11-12T13:52:46;1.47;;;0.50;;
20142;SDS011;10509;46.476;7.134;2022-11-12T13:55:16;3.43;;;0.60;;
20142;SDS011;10509;46.476;7.134;2022-11-12T13:57:49;1.40;;;0.50;;
20142;SDS011;10509;46.476;7.134;2022-11-12T14:02:42;3.20;;;0.90;;
20142;SDS011;10509;46.476;7.134;2022-11-12T14:05:11;2.87;;;0.83;;
20142;SDS011;10509;46.476;7.134;2022-11-12T14:07:42;2.33;;;0.60;;
20142;SDS011;10509;46.476;7.134;2022-11-12T14:10:33;0.90;;;0.60;;
20142;SDS011;10509;46.476;7.134;2022-11-12T14:13:34;4.70;;;0.80;;
20142;SDS011;10509;46.476;7.134;2022-11-12T14:16:04;2.60;;;0.90;;
20142;SDS011;10509;46.476;7.134;2022-11-12T14:21:21;1.30;;;0.70;;
20142;SDS011;10509;46.476;7.134;2022-11-12T14:23:47;4.50;;;3.87;;
20142;SDS011;10509;46.476;7.134;2022-11-12T14:26:31;7.93;;;3.03;;
20142;SDS011;10509;46.476;7.134;2022-11-12T14:28:58;15.40;;;2.27;;
20142;SDS011;10509;46.476;7.134;2022-11-12T14:31:24;5.40;;;1.37;;
20142;SDS011;10509;46.476;7.134;2022-11-12T14:33:50;7.70;;;1.73;;
20142;SDS011;10509;46.476;7.134;2022-11-12T14:36:16;5.33;;;1.30;;
20142;SDS011;10509;46.476;7.134;2022-11-12T14:39:01;2.47;;;0.80;;
20142;SDS011;10509;46.476;7.134;2022-11-12T14:41:32;5.03;;;1.00;;
20142;SDS011;10509;46.476;7.134;2022-11-12T14:44:00;5.20;;;1.20;;
20142;SDS011;10509;46.476;7.134;2022-11-12T14:51:40;2.20;;;1.00;;
20142;SDS011;10509;46.476;7.134;2022-11-12T14:54:08;3.87;;;0.87;;
20142;SDS011;10509;46.476;7.134;2022-11-12T14:56:39;6.40;;;1.10;;
20142;SDS011;10509;46.476;7.134;2022-11-12T14:59:05;10.23;;;1.47;;
20142;SDS011;10509;46.476;7.134;2022-11-12T15:01:33;2.73;;;1.80;;
20142;SDS011;10509;46.476;7.134;2022-11-12T15:04:18;8.20;;;2.20;;
20142;SDS011;10509;46.476;7.134;2022-11-12T15:06:52;4.93;;;2.10;;
20142;SDS011;10509;46.476;7.134;2022-11-12T15:09:30;4.90;;;1.57;;
20142;SDS011;10509;46.476;7.134;2022-11-12T15:11:57;3.90;;;2.03;;
20142;SDS011;10509;46.476;7.134;2022-11-12T15:14:23;3.50;;;1.60;;
20142;SDS011;10509;46.476;7.134;2022-11-12T15:16:50;4.13;;;3.20;;
20142;SDS011;10509;46.476;7.134;2022-11-12T15:19:17;3.40;;;3.07;;
20142;SDS011;10509;46.476;7.134;2022-11-12T15:21:45;2.43;;;2.23;;
20142;SDS011;10509;46.476;7.134;2022-11-12T15:26:42;7.27;;;6.57;;
20142;SDS011;10509;46.476;7.134;2022-11-12T15:31:42;6.80;;;6.10;;
20142;SDS011;10509;46.476;7.134;2022-11-12T15:36:43;6.27;;;4.20;;
20142;SDS011;10509;46.476;7.134;2022-11-12T15:39:10;5.30;;;4.80;;
20142;SDS011;10509;46.476;7.134;2022-11-12T15:41:37;4.20;;;3.77;;
20142;SDS011;10509;46.476;7.134;2022-11-12T15:44:04;7.80;;;5.73;;
20142;SDS011;10509;46.476;7.134;2022-11-12T15:46:30;6.50;;;6.00;;
20142;SDS011;10509;46.476;7.134;2022-11-12T15:48:56;9.30;;;5.73;;
20142;SDS011;10509;46.476;7.134;2022-11-12T15:51:22;7.57;;;6.93;;
20142;SDS011;10509;46.476;7.134;2022-11-12T15:53:48;11.77;;;7.33;;
20142;SDS011;10509;46.476;7.134;2022-11-12T15:56:15;7.70;;;7.10;;
20142;SDS011;10509;46.476;7.134;2022-11-12T15:58:42;13.83;;;7.10;;
20142;SDS011;10509;46.476;7.134;2022-11-12T16:01:09;10.03;;;8.07;;
20142;SDS011;10509;46.476;7.134;2022-11-12T16:03:35;13.43;;;12.10;;
20142;SDS011;10509;46.476;7.134;2022-11-12T16:06:01;15.43;;;12.03;;
20142;SDS011;10509;46.476;7.134;2022-11-12T16:08:27;12.43;;;11.17;;
20142;SDS011;10509;46.476;7.134;2022-11-12T16:10:53;13.87;;;10.97;;
20142;SDS011;10509;46.476;7.134;2022-11-12T16:13:24;13.70;;;12.37;;
20142;SDS011;10509;46.476;7.134;2022-11-12T16:15:51;20.53;;;13.03;;
20142;SDS011;10509;46.476;7.134;2022-11-12T16:18:18;11.60;;;10.57;;
20142;SDS011;10509;46.476;7.134;2022-11-12T16:20:44;10.63;;;9.50;;
20142;SDS011;10509;46.476;7.134;2022-11-12T16:23:11;12.40;;;11.40;;
20142;SDS011;10509;46.476;7.134;2022-11-12T16:25:37;12.23;;;11.23;;
20142;SDS011;10509;46.476;7.134;2022-11-12T16:28:08;6.83;;;6.23;;
20142;SDS011;10509;46.476;7.134;2022-11-12T16:30:34;12.77;;;11.57;;
20142;SDS011;10509;46.476;7.134;2022-11-12T16:33:00;8.03;;;7.10;;
20142;SDS011;10509;46.476;7.134;2022-11-12T16:35:27;7.73;;;7.03;;
20142;SDS011;10509;46.476;7.134;2022-11-12T16:37:53;10.70;;;9.60;;
20142;SDS011;10509;46.476;7.134;2022-11-12T16:40:24;7.93;;;7.27;;
20142;SDS011;10509;46.476;7.134;2022-11-12T16:42:50;8.20;;;7.60;;
20142;SDS011;10509;46.476;7.134;2022-11-12T16:45:20;6.70;;;6.10;;
20142;SDS011;10509;46.476;7.134;2022-11-12T16:47:50;6.80;;;5.17;;
20142;SDS011;10509;46.476;7.134;2022-11-12T16:50:18;5.23;;;4.83;;